Terminal Aerodrome Forecast
Issued by NWS Rapid City, SD

Home | Current Version | Previous Version | Text Only | Print | Product List | Glossary On
Versions: 1 2 3 4 5 6 7 8 9 10 11 12 13 14 15 16 17 18 19 20 21
009
FTUS43 KUNR 210119 AAA
TAFRAP
TAF AMD
KRAP 210119Z 2101/2124 16015G25KT P6SM SCT250
     FM210300 36011KT P6SM TSRA OVC100CB
     FM210800 19006KT P6SM OVC150
     FM211300 27007KT P6SM SCT200
     FM211400 31008KT P6SM SCT200
     FM211600 34015KT P6SM SCT250=

USA.gov is the U.S. government's official web portal to all federal, state and local government web resources and services.